createdAt,value
2023-03-25T00:00:21.787Z,98558.00
2023-03-25T00:02:53.642Z,98558.00
2023-03-25T00:05:24.220Z,98558.00
2023-03-25T00:07:54.937Z,98554.00
2023-03-25T00:10:24.165Z,98561.00
2023-03-25T00:12:53.895Z,98561.00
2023-03-25T00:15:23.360Z,98564.00
2023-03-25T00:17:52.615Z,98560.00
2023-03-25T00:20:24.697Z,98568.00
2023-03-25T00:22:53.913Z,98574.00
2023-03-25T00:25:23.158Z,98574.00
2023-03-25T00:27:52.437Z,98577.00
2023-03-25T00:30:22.310Z,98583.00
2023-03-25T00:32:53.633Z,98587.00
2023-03-25T00:35:24.889Z,98585.00
2023-03-25T00:37:58.480Z,98588.00
2023-03-25T00:40:35.758Z,98593.00
2023-03-25T00:43:07.596Z,98591.00
2023-03-25T00:48:06.899Z,98607.00
2023-03-25T00:50:36.348Z,98606.00
2023-03-25T00:53:05.653Z,98602.00
2023-03-25T00:55:34.877Z,98612.00
2023-03-25T00:58:06.360Z,98611.00
2023-03-25T01:00:35.535Z,98618.00
2023-03-25T01:03:05.112Z,98616.00
2023-03-25T01:05:37.043Z,98615.00
2023-03-25T01:08:06.447Z,98631.00
2023-03-25T01:10:39.178Z,98632.00
2023-03-25T01:13:11.464Z,98639.00
2023-03-25T01:15:48.963Z,98638.00
2023-03-25T01:18:23.480Z,98653.00
2023-03-25T01:20:56.564Z,98659.00
2023-03-25T01:23:25.774Z,98659.00
2023-03-25T01:25:54.921Z,98659.00
2023-03-25T01:28:24.228Z,98665.00
2023-03-25T01:30:53.500Z,98658.00
2023-03-25T01:33:22.771Z,98663.00
2023-03-25T01:35:52.375Z,98662.00
2023-03-25T01:38:22.149Z,98666.00
2023-03-25T01:40:54.431Z,98678.00
2023-03-25T01:43:24.545Z,98665.00
2023-03-25T01:45:53.924Z,98672.00
2023-03-25T01:48:41.591Z,98669.00
2023-03-25T01:51:24.062Z,98678.00
2023-03-25T01:53:54.553Z,98671.00
2023-03-25T01:56:34.369Z,98673.00
2023-03-25T01:59:08.187Z,98685.00
2023-03-25T02:01:37.813Z,98684.00
2023-03-25T02:04:13.726Z,98689.00
2023-03-25T02:06:52.067Z,98691.00
2023-03-25T02:09:27.052Z,98694.00
2023-03-25T02:11:56.231Z,98695.00
2023-03-25T02:14:32.686Z,98692.00
2023-03-25T02:17:36.315Z,98698.00
2023-03-25T02:20:50.887Z,98704.00
2023-03-25T02:23:50.710Z,98705.00
2023-03-25T02:26:46.886Z,98706.00
2023-03-25T02:29:41.229Z,98709.00
2023-03-25T02:32:58.244Z,98708.00
2023-03-25T02:36:12.484Z,98716.00
2023-03-25T02:39:06.804Z,98703.00
2023-03-25T02:42:19.092Z,98714.00
2023-03-25T02:45:00.064Z,98702.00
2023-03-25T02:47:46.041Z,98712.00
2023-03-25T02:50:42.798Z,98707.00
2023-03-25T02:53:22.569Z,98708.00
2023-03-25T02:55:56.297Z,98708.00
2023-03-25T02:58:28.748Z,98706.00
2023-03-25T03:01:01.692Z,98700.00
2023-03-25T03:03:31.061Z,98705.00
2023-03-25T03:06:05.414Z,98706.00
2023-03-25T03:08:53.017Z,98708.00
2023-03-25T03:11:59.834Z,98705.00
2023-03-25T03:15:06.751Z,98706.00
2023-03-25T03:18:09.872Z,98706.00
2023-03-25T03:21:10.262Z,98692.00
2023-03-25T03:24:08.661Z,98699.00
2023-03-25T03:26:54.260Z,98695.00
2023-03-25T03:29:32.844Z,98702.00
2023-03-25T03:32:21.955Z,98694.00
2023-03-25T03:35:00.823Z,98703.00
2023-03-25T03:37:43.903Z,98699.00
2023-03-25T03:40:19.933Z,98700.00
2023-03-25T03:42:58.084Z,98692.00
2023-03-25T03:45:47.609Z,98694.00
2023-03-25T03:48:32.850Z,98694.00
2023-03-25T03:51:11.066Z,98695.00
2023-03-25T03:53:59.598Z,98695.00
2023-03-25T03:57:02.815Z,98694.00
2023-03-25T03:59:58.650Z,98689.00
2023-03-25T04:02:53.768Z,98683.00
2023-03-25T04:05:31.640Z,98680.00
2023-03-25T04:08:15.096Z,98676.00
2023-03-25T04:11:17.421Z,98670.00
2023-03-25T04:13:50.931Z,98676.00
2023-03-25T04:16:20.183Z,98669.00
2023-03-25T04:18:49.401Z,98666.00
2023-03-25T04:21:18.626Z,98666.00
2023-03-25T04:23:47.837Z,98664.00
2023-03-25T04:26:17.071Z,98658.00
2023-03-25T04:28:46.208Z,98658.00
2023-03-25T04:31:19.152Z,98652.00
2023-03-25T04:33:49.348Z,98649.00
2023-03-25T04:36:18.739Z,98644.00
2023-03-25T04:38:47.909Z,98646.00
2023-03-25T04:41:18.475Z,98634.00
2023-03-25T04:43:47.768Z,98640.00
2023-03-25T04:46:19.711Z,98635.00
2023-03-25T04:48:49.441Z,98629.00
2023-03-25T04:51:19.278Z,98619.00
2023-03-25T04:53:48.494Z,98623.00
2023-03-25T04:56:20.279Z,98614.00
2023-03-25T04:58:49.493Z,98612.00
2023-03-25T05:01:33.353Z,98598.00
2023-03-25T05:04:06.711Z,98602.00
2023-03-25T05:06:42.689Z,98601.00
2023-03-25T05:09:20.080Z,98596.00
2023-03-25T05:11:50.240Z,98589.00
2023-03-25T05:14:22.789Z,98583.00
2023-03-25T05:16:52.140Z,98580.00
2023-03-25T05:19:21.556Z,98575.00
2023-03-25T05:21:50.775Z,98571.00
2023-03-25T05:24:20.325Z,98565.00
2023-03-25T05:26:49.520Z,98561.00
2023-03-25T05:29:18.853Z,98552.00
2023-03-25T05:31:49.532Z,98557.00
2023-03-25T05:34:18.921Z,98553.00
2023-03-25T05:36:48.665Z,98536.00
2023-03-25T05:39:18.623Z,98527.00
2023-03-25T05:41:47.770Z,98518.00
2023-03-25T05:44:20.170Z,98518.00
2023-03-25T05:46:49.513Z,98517.00
2023-03-25T05:49:19.127Z,98511.00
2023-03-25T05:51:50.523Z,98511.00
2023-03-25T05:54:19.767Z,98505.00
2023-03-25T05:56:49.217Z,98495.00
2023-03-25T05:59:19.057Z,98483.00
2023-03-25T06:01:48.355Z,98478.00
2023-03-25T06:04:17.645Z,98477.00
2023-03-25T06:06:47.758Z,98477.00
2023-03-25T06:09:18.816Z,98473.00
2023-03-25T06:11:54.346Z,98466.00
2023-03-25T06:14:26.527Z,98468.00
2023-03-25T06:16:57.617Z,98463.00
2023-03-25T06:19:27.664Z,98454.00
2023-03-25T06:21:57.015Z,98450.00
2023-03-25T06:24:26.327Z,98445.00
2023-03-25T06:26:55.580Z,98435.00
2023-03-25T06:29:24.831Z,98430.00
2023-03-25T06:31:54.110Z,98431.00
2023-03-25T06:34:23.762Z,98419.00
2023-03-25T06:36:55.117Z,98411.00
2023-03-25T06:39:24.455Z,98415.00
2023-03-25T06:41:53.696Z,98403.00
2023-03-25T06:44:24.353Z,98402.00
2023-03-25T06:46:55.036Z,98405.00
2023-03-25T06:49:24.691Z,98392.00
2023-03-25T06:51:53.977Z,98396.00
2023-03-25T06:54:23.732Z,98385.00
2023-03-25T06:56:52.990Z,98379.00
2023-03-25T06:59:22.184Z,98376.00
2023-03-25T07:01:51.737Z,98377.00
2023-03-25T07:04:21.164Z,98373.00
2023-03-25T07:06:50.463Z,98372.00
2023-03-25T07:09:19.980Z,98364.00
2023-03-25T07:11:49.292Z,98358.00
2023-03-25T07:14:19.437Z,98352.00
2023-03-25T07:16:48.869Z,98354.00
2023-03-25T07:19:18.200Z,98354.00
2023-03-25T07:21:47.480Z,98338.00
2023-03-25T07:24:17.071Z,98338.00
2023-03-25T07:26:46.431Z,98335.00
2023-03-25T07:29:15.684Z,98330.00
2023-03-25T07:31:45.087Z,98325.00
2023-03-25T07:34:14.377Z,98320.00
2023-03-25T07:36:43.632Z,98324.00
2023-03-25T07:39:12.929Z,98318.00
2023-03-25T07:41:43.968Z,98307.00
2023-03-25T07:44:13.537Z,98299.00
2023-03-25T07:46:43.731Z,98300.00
2023-03-25T07:49:12.984Z,98306.00
2023-03-25T07:51:42.345Z,98298.00
2023-03-25T07:54:12.177Z,98294.00
2023-03-25T07:56:41.498Z,98289.00
2023-03-25T07:59:10.735Z,98285.00
2023-03-25T08:01:39.969Z,98274.00
2023-03-25T08:04:09.242Z,98263.00
2023-03-25T08:06:38.716Z,98256.00
2023-03-25T08:09:08.445Z,98265.00
2023-03-25T08:11:37.815Z,98265.00
2023-03-25T08:14:07.611Z,98264.00
2023-03-25T08:16:36.932Z,98259.00
2023-03-25T08:19:06.133Z,98253.00
2023-03-25T08:21:35.263Z,98250.00
2023-03-25T08:24:05.543Z,98240.00
2023-03-25T08:26:36.559Z,98234.00
2023-03-25T08:29:06.154Z,98247.00
2023-03-25T08:31:36.557Z,98233.00
2023-03-25T08:34:07.738Z,98236.00
2023-03-25T08:36:40.372Z,98237.00
2023-03-25T08:39:12.549Z,98227.00
2023-03-25T08:41:42.262Z,98219.00
2023-03-25T08:44:12.490Z,98225.00
2023-03-25T08:46:42.566Z,98214.00
2023-03-25T08:49:11.842Z,98211.00
2023-03-25T08:51:43.467Z,98211.00
2023-03-25T08:54:13.402Z,98205.00
2023-03-25T08:56:42.641Z,98201.00
2023-03-25T08:59:12.443Z,98208.00
2023-03-25T09:01:43.213Z,98207.00
2023-03-25T09:04:13.234Z,98218.00
2023-03-25T09:06:48.217Z,98211.00
2023-03-25T09:09:31.975Z,98214.00
2023-03-25T09:12:01.396Z,98213.00
2023-03-25T09:14:30.586Z,98209.00
2023-03-25T09:16:59.792Z,98209.00
2023-03-25T09:19:29.140Z,98217.00
2023-03-25T09:21:58.319Z,98207.00
2023-03-25T09:24:28.357Z,98208.00
2023-03-25T09:26:57.492Z,98205.00
2023-03-25T09:29:26.680Z,98205.00
2023-03-25T09:31:56.247Z,98204.00
2023-03-25T09:34:25.853Z,98205.00
2023-03-25T09:36:57.218Z,98209.00
2023-03-25T09:39:26.411Z,98206.00
2023-03-25T09:42:07.588Z,98206.00
2023-03-25T09:45:07.110Z,98209.00
2023-03-25T09:47:49.806Z,98211.00
2023-03-25T09:50:20.652Z,98205.00
2023-03-25T09:53:37.862Z,98208.00
2023-03-25T09:56:16.972Z,98205.00
2023-03-25T09:59:01.621Z,98204.00
2023-03-25T10:01:48.732Z,98199.00
2023-03-25T10:04:58.642Z,98203.00
2023-03-25T10:07:45.531Z,98208.00
2023-03-25T10:10:49.355Z,98207.00
2023-03-25T10:13:50.405Z,98211.00
2023-03-25T10:17:07.283Z,98204.00
2023-03-25T10:19:55.381Z,98203.00
2023-03-25T10:22:42.656Z,98207.00
2023-03-25T10:25:29.368Z,98206.00
2023-03-25T10:28:01.872Z,98202.00
2023-03-25T10:30:39.722Z,98209.00
2023-03-25T10:33:42.901Z,98201.00
2023-03-25T10:36:22.470Z,98206.00
2023-03-25T10:38:56.541Z,98203.00
2023-03-25T10:41:38.744Z,98200.00
2023-03-25T10:44:12.929Z,98210.00
2023-03-25T10:47:06.228Z,98208.00
2023-03-25T10:49:38.187Z,98214.00
2023-03-25T10:52:08.008Z,98213.00
2023-03-25T10:54:43.827Z,98215.00
2023-03-25T10:57:24.017Z,98220.00
2023-03-25T11:00:20.891Z,98223.00
2023-03-25T11:02:51.371Z,98224.00
2023-03-25T11:05:30.904Z,98227.00
2023-03-25T11:08:11.965Z,98226.00
2023-03-25T11:11:00.356Z,98234.00
2023-03-25T11:13:32.837Z,98232.00
2023-03-25T11:16:05.280Z,98230.00
2023-03-25T11:18:41.459Z,98241.00
2023-03-25T11:21:19.370Z,98235.00
2023-03-25T11:23:52.840Z,98241.00
2023-03-25T11:26:40.293Z,98241.00
2023-03-25T11:29:15.121Z,98236.00
2023-03-25T11:31:45.685Z,98237.00
2023-03-25T11:34:14.998Z,98241.00
2023-03-25T11:37:09.958Z,98240.00
2023-03-25T11:39:44.487Z,98243.00
2023-03-25T11:42:40.585Z,98244.00
2023-03-25T11:45:25.489Z,98257.00
2023-03-25T11:48:01.499Z,98250.00
2023-03-25T11:50:32.385Z,98253.00
2023-03-25T11:53:05.269Z,98256.00
2023-03-25T11:55:47.432Z,98259.00
2023-03-25T11:58:28.399Z,98253.00
2023-03-25T12:01:21.984Z,98258.00
2023-03-25T12:03:52.750Z,98268.00
2023-03-25T12:06:24.111Z,98273.00
2023-03-25T12:09:02.261Z,98274.00
2023-03-25T12:12:17.694Z,98266.00
2023-03-25T12:15:15.248Z,98271.00
2023-03-25T12:17:57.779Z,98274.00
2023-03-25T12:20:47.319Z,98272.00
2023-03-25T12:23:46.555Z,98281.00
2023-03-25T12:26:39.604Z,98282.00
2023-03-25T12:29:37.279Z,98292.00
2023-03-25T12:32:06.118Z,98297.00
2023-03-25T12:35:16.419Z,98294.00
2023-03-25T12:38:25.581Z,98286.00
2023-03-25T12:41:09.548Z,98290.00
2023-03-25T12:43:49.334Z,98296.00
2023-03-25T12:46:50.592Z,98300.00
2023-03-25T12:50:17.271Z,98314.00
2023-03-25T12:53:21.071Z,98314.00
2023-03-25T12:56:21.584Z,98315.00
2023-03-25T12:59:33.681Z,98315.00
2023-03-25T13:03:13.417Z,98320.00
2023-03-25T13:05:57.450Z,98325.00
2023-03-25T13:08:49.582Z,98327.00
2023-03-25T13:11:51.884Z,98322.00
2023-03-25T13:15:03.560Z,98334.00
2023-03-25T13:17:47.297Z,98335.00
2023-03-25T13:20:20.149Z,98343.00
2023-03-25T13:23:00.550Z,98339.00
2023-03-25T13:25:34.931Z,98349.00
2023-03-25T13:28:11.777Z,98351.00
2023-03-25T13:30:45.299Z,98347.00
2023-03-25T13:33:38.598Z,98350.00
2023-03-25T13:36:36.766Z,98350.00
2023-03-25T13:39:28.844Z,98352.00
2023-03-25T13:42:42.744Z,98358.00
2023-03-25T13:45:22.846Z,98368.00
2023-03-25T13:48:19.280Z,98370.00
2023-03-25T13:50:48.651Z,98378.00
2023-03-25T13:54:09.976Z,98383.00
2023-03-25T13:57:12.410Z,98393.00
2023-03-25T14:00:53.803Z,98397.00
2023-03-25T14:04:20.653Z,98401.00
2023-03-25T14:06:58.625Z,98400.00
2023-03-25T14:10:02.357Z,98405.00
2023-03-25T14:12:52.385Z,98416.00
2023-03-25T14:15:38.771Z,98411.00
2023-03-25T14:18:19.506Z,98418.00
2023-03-25T14:20:50.507Z,98420.00
2023-03-25T14:23:24.060Z,98425.00
2023-03-25T14:26:01.150Z,98433.00
2023-03-25T14:28:46.995Z,98433.00
2023-03-25T14:31:25.467Z,98442.00
2023-03-25T14:34:04.052Z,98436.00
2023-03-25T14:36:43.227Z,98448.00
2023-03-25T14:39:30.076Z,98447.00
2023-03-25T14:42:31.865Z,98457.00
2023-03-25T14:45:55.045Z,98455.00
2023-03-25T14:49:09.944Z,98457.00
2023-03-25T14:51:43.399Z,98458.00
2023-03-25T14:54:24.741Z,98465.00
2023-03-25T14:57:07.089Z,98460.00
2023-03-25T14:59:51.582Z,98456.00
2023-03-25T15:02:35.444Z,98462.00
2023-03-25T15:05:13.065Z,98457.00
2023-03-25T15:08:25.357Z,98465.00
2023-03-25T15:11:18.082Z,98455.00
2023-03-25T15:13:57.321Z,98458.00
2023-03-25T15:16:49.350Z,98459.00
2023-03-25T15:19:21.028Z,98460.00
2023-03-25T15:22:02.418Z,98456.00
2023-03-25T15:24:40.647Z,98456.00
2023-03-25T15:27:46.969Z,98461.00
2023-03-25T15:30:45.843Z,98457.00
2023-03-25T15:34:17.996Z,98466.00
2023-03-25T15:37:45.266Z,98470.00
2023-03-25T15:41:02.319Z,98469.00
2023-03-25T15:44:13.485Z,98471.00
2023-03-25T15:47:00.712Z,98471.00
2023-03-25T15:50:09.701Z,98477.00
2023-03-25T15:53:42.442Z,98474.00
2023-03-25T15:56:25.762Z,98469.00
2023-03-25T15:59:09.303Z,98467.00
2023-03-25T16:01:44.901Z,98472.00
2023-03-25T16:04:40.243Z,98473.00
2023-03-25T16:07:15.217Z,98476.00
2023-03-25T16:09:49.843Z,98472.00
2023-03-25T16:12:27.186Z,98479.00
2023-03-25T16:14:56.945Z,98481.00
2023-03-25T16:17:35.774Z,98488.00
2023-03-25T16:20:07.780Z,98499.00
2023-03-25T16:22:38.906Z,98493.00
2023-03-25T16:25:17.841Z,98495.00
2023-03-25T16:27:53.505Z,98495.00
2023-03-25T16:30:37.795Z,98485.00
2023-03-25T16:33:12.809Z,98487.00
2023-03-25T16:36:00.033Z,98488.00
2023-03-25T16:38:32.034Z,98483.00
2023-03-25T16:41:16.167Z,98489.00
2023-03-25T16:43:46.349Z,98482.00
2023-03-25T16:46:19.751Z,98488.00
2023-03-25T16:48:55.655Z,98481.00
2023-03-25T16:51:36.998Z,98479.00
2023-03-25T16:54:48.025Z,98480.00
2023-03-25T16:57:28.241Z,98474.00
2023-03-25T17:00:03.940Z,98471.00
2023-03-25T17:02:42.527Z,98461.00
2023-03-25T17:05:28.497Z,98457.00
2023-03-25T17:08:12.098Z,98458.00
2023-03-25T17:11:02.121Z,98456.00
2023-03-25T17:13:43.653Z,98457.00
2023-03-25T17:16:14.556Z,98447.00
2023-03-25T17:18:44.090Z,98442.00
2023-03-25T17:21:28.162Z,98440.00
2023-03-25T17:24:02.807Z,98435.00
2023-03-25T17:26:55.301Z,98439.00
2023-03-25T17:29:24.733Z,98430.00
2023-03-25T17:32:00.506Z,98431.00
2023-03-25T17:34:38.229Z,98428.00
2023-03-25T17:37:12.349Z,98424.00
2023-03-25T17:39:44.143Z,98420.00
2023-03-25T17:42:27.760Z,98422.00
2023-03-25T17:44:57.114Z,98412.00
2023-03-25T17:47:27.179Z,98414.00
2023-03-25T17:49:57.498Z,98413.00
2023-03-25T17:52:30.778Z,98414.00
2023-03-25T17:55:01.351Z,98412.00
2023-03-25T17:57:30.644Z,98406.00
2023-03-25T17:59:59.994Z,98407.00
2023-03-25T18:02:29.867Z,98400.00
2023-03-25T18:04:59.250Z,98398.00
2023-03-25T18:07:28.849Z,98394.00
2023-03-25T18:09:58.071Z,98390.00
2023-03-25T18:12:28.016Z,98390.00
2023-03-25T18:14:57.333Z,98389.00
2023-03-25T18:17:26.644Z,98383.00
2023-03-25T18:19:55.958Z,98380.00
2023-03-25T18:22:25.281Z,98378.00
2023-03-25T18:24:54.597Z,98369.00
2023-03-25T18:27:33.294Z,98366.00
2023-03-25T18:30:30.496Z,98364.00
2023-03-25T18:32:59.979Z,98363.00
2023-03-25T18:35:29.318Z,98364.00
2023-03-25T18:37:58.689Z,98355.00
2023-03-25T18:40:35.978Z,98347.00
2023-03-25T18:43:05.632Z,98353.00
2023-03-25T18:45:35.357Z,98344.00
2023-03-25T18:48:06.014Z,98344.00
2023-03-25T18:50:42.882Z,98350.00
2023-03-25T18:53:12.239Z,98347.00
2023-03-25T18:55:44.133Z,98339.00
2023-03-25T18:58:23.609Z,98339.00
2023-03-25T19:00:56.006Z,98334.00
2023-03-25T19:03:47.301Z,98329.00
2023-03-25T19:06:16.958Z,98338.00
2023-03-25T19:08:48.406Z,98331.00
2023-03-25T19:11:21.898Z,98334.00
2023-03-25T19:13:53.474Z,98341.00
2023-03-25T19:16:23.132Z,98339.00
2023-03-25T19:18:52.599Z,98339.00
2023-03-25T19:21:22.423Z,98336.00
2023-03-25T19:23:53.121Z,98343.00
2023-03-25T19:26:22.397Z,98342.00
2023-03-25T19:28:51.754Z,98335.00
2023-03-25T19:31:21.363Z,98331.00
2023-03-25T19:33:50.742Z,98326.00
2023-03-25T19:36:24.024Z,98317.00
2023-03-25T19:38:55.948Z,98322.00
2023-03-25T19:41:25.260Z,98325.00
2023-03-25T19:43:54.505Z,98316.00
2023-03-25T19:46:24.837Z,98320.00
2023-03-25T19:48:54.261Z,98322.00
2023-03-25T19:51:23.533Z,98314.00
2023-03-25T19:53:52.842Z,98315.00
2023-03-25T19:56:22.515Z,98316.00
2023-03-25T19:58:51.808Z,98314.00
2023-03-25T20:01:23.365Z,98307.00
2023-03-25T20:03:53.487Z,98304.00
2023-03-25T20:06:22.807Z,98301.00
2023-03-25T20:08:52.143Z,98304.00
2023-03-25T20:11:21.626Z,98303.00
2023-03-25T20:13:51.069Z,98302.00
2023-03-25T20:16:21.529Z,98307.00
2023-03-25T20:18:51.334Z,98304.00
2023-03-25T20:21:22.581Z,98304.00
2023-03-25T20:23:53.048Z,98304.00
2023-03-25T20:26:22.641Z,98307.00
2023-03-25T20:28:52.127Z,98313.00
2023-03-25T20:31:24.819Z,98316.00
2023-03-25T20:33:54.279Z,98327.00
2023-03-25T20:36:24.297Z,98326.00
2023-03-25T20:38:57.524Z,98325.00
2023-03-25T20:41:28.179Z,98323.00
2023-03-25T20:43:57.557Z,98327.00
2023-03-25T20:46:32.160Z,98319.00
2023-03-25T20:49:02.866Z,98332.00
2023-03-25T20:51:32.109Z,98326.00
2023-03-25T20:54:01.329Z,98332.00
2023-03-25T20:56:30.625Z,98333.00
2023-03-25T20:58:59.878Z,98336.00
2023-03-25T21:01:29.678Z,98342.00
2023-03-25T21:03:59.596Z,98342.00
2023-03-25T21:06:28.817Z,98336.00
2023-03-25T21:09:01.046Z,98337.00
2023-03-25T21:11:34.884Z,98333.00
2023-03-25T21:14:04.894Z,98337.00
2023-03-25T21:16:34.773Z,98343.00
2023-03-25T21:19:03.960Z,98343.00
2023-03-25T21:21:33.954Z,98346.00
2023-03-25T21:24:05.315Z,98336.00
2023-03-25T21:26:35.822Z,98342.00
2023-03-25T21:29:05.090Z,98344.00
2023-03-25T21:31:34.394Z,98348.00
2023-03-25T21:34:03.696Z,98342.00
2023-03-25T21:36:33.610Z,98346.00
2023-03-25T21:39:05.518Z,98341.00
2023-03-25T21:41:34.792Z,98347.00
2023-03-25T21:44:04.257Z,98350.00
2023-03-25T21:46:34.501Z,98354.00
2023-03-25T21:49:05.138Z,98359.00
2023-03-25T21:51:37.097Z,98363.00
2023-03-25T21:54:07.273Z,98363.00
2023-03-25T21:56:40.982Z,98372.00
2023-03-25T21:59:11.340Z,98376.00
2023-03-25T22:01:42.676Z,98382.00
2023-03-25T22:04:12.211Z,98378.00
2023-03-25T22:06:41.779Z,98385.00
2023-03-25T22:09:11.263Z,98383.00
2023-03-25T22:11:40.885Z,98381.00
2023-03-25T22:14:10.692Z,98384.00
2023-03-25T22:16:40.374Z,98386.00
2023-03-25T22:19:09.805Z,98392.00
2023-03-25T22:21:39.179Z,98398.00
2023-03-25T22:24:10.583Z,98404.00
2023-03-25T22:26:40.793Z,98419.00
2023-03-25T22:29:12.287Z,98413.00
2023-03-25T22:31:42.059Z,98415.00
2023-03-25T22:34:16.095Z,98426.00
2023-03-25T22:36:51.302Z,98431.00
2023-03-25T22:39:23.928Z,98433.00
2023-03-25T22:41:53.621Z,98432.00
2023-03-25T22:44:23.255Z,98435.00
2023-03-25T22:46:54.130Z,98447.00
2023-03-25T22:49:23.889Z,98445.00
2023-03-25T22:51:53.520Z,98445.00
2023-03-25T22:54:23.615Z,98448.00
2023-03-25T22:56:52.897Z,98454.00
2023-03-25T22:59:22.344Z,98459.00
2023-03-25T23:01:51.603Z,98462.00
2023-03-25T23:04:20.877Z,98469.00
2023-03-25T23:07:00.646Z,98475.00
2023-03-25T23:09:43.336Z,98481.00
2023-03-25T23:12:17.853Z,98478.00
2023-03-25T23:14:53.239Z,98483.00
2023-03-25T23:17:24.843Z,98488.00
2023-03-25T23:19:54.893Z,98488.00
2023-03-25T23:22:25.738Z,98490.00
2023-03-25T23:24:55.103Z,98496.00
2023-03-25T23:27:25.859Z,98498.00
2023-03-25T23:29:55.402Z,98501.00
2023-03-25T23:32:24.638Z,98505.00
2023-03-25T23:34:59.157Z,98515.00
2023-03-25T23:37:28.555Z,98508.00
2023-03-25T23:39:57.762Z,98521.00
2023-03-25T23:42:34.895Z,98511.00
2023-03-25T23:45:05.045Z,98515.00
2023-03-25T23:47:34.575Z,98505.00
2023-03-25T23:50:04.996Z,98509.00
2023-03-25T23:52:34.516Z,98509.00
2023-03-25T23:55:03.768Z,98507.00
2023-03-25T23:57:33.142Z,98518.00
